Time;durP1;ratioP1;P1;durP2;ratioP2;P2;SDS_P1;SDS_P2;PMS_P1;PMS_P2;Temp;Humidity;BMP_temperature;BMP_pressure;BME280_temperature;BME280_humidity;BME280_pressure;Samples;Min_cycle;Max_cycle;Signal;HPM_P1;HPM_P2
2024/04/05 00:00:52;;;;;;;4.40;1.40;;;10.50;99.90;;;;;;5083888;28;20201;-61
2024/04/05 00:03:18;;;;;;;8.53;1.87;;;10.40;99.90;;;;;;5082413;28;20937;-60
2024/04/05 00:05:46;;;;;;;3.47;1.80;;;10.40;99.90;;;;;;5080302;28;20197;-58
2024/04/05 00:08:12;;;;;;;5.30;1.90;;;10.40;99.90;;;;;;5081553;28;20222;-61
2024/04/05 00:10:40;;;;;;;5.50;1.97;;;10.40;99.90;;;;;;5081185;28;20238;-59
2024/04/05 00:13:06;;;;;;;9.43;1.70;;;10.40;99.90;;;;;;5049635;28;20226;-60
2024/04/05 00:15:38;;;;;;;4.73;1.83;;;10.50;99.90;;;;;;5084092;28;20212;-59
2024/04/05 00:18:04;;;;;;;10.70;2.13;;;10.40;99.90;;;;;;5076219;28;20995;-61
2024/04/05 00:20:31;;;;;;;8.60;2.30;;;10.40;99.90;;;;;;5084415;28;20201;-59
2024/04/05 00:22:58;;;;;;;7.40;2.47;;;10.50;99.90;;;;;;5083124;28;20202;-61
2024/04/05 00:25:25;;;;;;;6.73;1.80;;;10.40;99.90;;;;;;5075699;28;20276;-61
2024/04/05 00:27:54;;;;;;;7.53;2.40;;;10.50;99.90;;;;;;5036493;28;20225;-61
2024/04/05 00:30:21;;;;;;;5.07;1.90;;;10.40;99.90;;;;;;5084961;28;20204;-61
2024/04/05 00:32:46;;;;;;;7.87;2.60;;;10.50;99.90;;;;;;5077225;28;20679;-60
2024/04/05 00:35:13;;;;;;;13.57;2.50;;;10.50;99.90;;;;;;5074754;28;20204;-59
2024/04/05 00:37:39;;;;;;;9.23;2.73;;;10.50;99.90;;;;;;5087927;28;20209;-60
2024/04/05 00:40:08;;;;;;;8.03;3.00;;;10.50;99.90;;;;;;5078905;28;20194;-61
2024/04/05 00:42:37;;;;;;;6.90;2.10;;;10.40;99.90;;;;;;5039045;28;20901;-60
2024/04/05 00:45:04;;;;;;;6.93;2.33;;;10.40;99.90;;;;;;5080257;28;20205;-59
2024/04/05 00:47:31;;;;;;;6.90;2.67;;;10.40;99.90;;;;;;5084896;28;20229;-60
2024/04/05 00:49:59;;;;;;;6.63;1.87;;;10.40;99.90;;;;;;5089068;28;20556;-61
2024/04/05 00:52:26;;;;;;;8.57;2.40;;;10.30;99.90;;;;;;5085705;28;20228;-59
2024/04/05 00:54:53;;;;;;;11.17;2.33;;;10.30;99.90;;;;;;5077947;28;20193;-61
2024/04/05 00:57:20;;;;;;;11.00;2.43;;;10.30;99.90;;;;;;5074103;28;20214;-59
2024/04/05 00:59:48;;;;;;;9.47;2.53;;;10.30;99.90;;;;;;5048084;28;20928;-60
2024/04/05 01:02:13;;;;;;;10.50;2.40;;;10.30;99.90;;;;;;5092200;28;20239;-59
2024/04/05 01:04:41;;;;;;;11.70;2.40;;;10.30;99.90;;;;;;5090273;28;20196;-60
2024/04/05 01:07:07;;;;;;;9.47;2.33;;;10.30;99.90;;;;;;5093155;28;20210;-61
2024/04/05 01:09:34;;;;;;;8.50;2.83;;;10.30;99.90;;;;;;5078257;28;20199;-61
2024/04/05 01:12:00;;;;;;;10.27;2.83;;;10.30;99.90;;;;;;5072228;28;20202;-60
2024/04/05 01:14:29;;;;;;;11.13;2.50;;;10.20;99.90;;;;;;5035197;28;20194;-59
2024/04/05 01:16:55;;;;;;;14.03;2.83;;;10.30;99.90;;;;;;5088468;28;20278;-61
2024/04/05 01:19:24;;;;;;;10.00;2.67;;;10.30;99.90;;;;;;5085463;28;20206;-60
2024/04/05 01:21:51;;;;;;;11.80;2.70;;;10.30;99.90;;;;;;5086853;28;20190;-61
2024/04/05 01:24:20;;;;;;;10.43;2.93;;;10.20;99.90;;;;;;5083215;28;20190;-58
2024/04/05 01:26:45;;;;;;;15.53;3.10;;;10.20;99.90;;;;;;5076277;28;20283;-61
2024/04/05 01:29:12;;;;;;;10.63;2.23;;;10.20;99.90;;;;;;5067867;28;20237;-59
2024/04/05 01:31:39;;;;;;;8.73;2.50;;;10.20;99.90;;;;;;5060409;28;20214;-59
2024/04/05 01:34:05;;;;;;;7.40;2.43;;;10.20;99.90;;;;;;5089124;28;20193;-60
2024/04/05 01:36:31;;;;;;;11.77;3.10;;;10.20;99.90;;;;;;5082932;28;20310;-60
2024/04/05 01:38:58;;;;;;;12.83;2.90;;;10.20;99.90;;;;;;5090055;28;20894;-61
2024/04/05 01:41:25;;;;;;;9.87;2.60;;;10.20;99.90;;;;;;5066566;28;20611;-59
2024/04/05 01:43:52;;;;;;;11.10;2.40;;;10.20;99.90;;;;;;5074098;28;20285;-61
2024/04/05 01:46:18;;;;;;;13.67;2.93;;;10.20;99.90;;;;;;5052260;28;20267;-60
2024/04/05 01:48:45;;;;;;;10.97;2.97;;;10.20;99.90;;;;;;5083099;28;20229;-61
2024/04/05 01:51:10;;;;;;;16.23;3.20;;;10.20;99.90;;;;;;5082982;28;20190;-60
2024/04/05 01:53:37;;;;;;;15.80;3.60;;;10.20;99.90;;;;;;5078664;28;20190;-60
2024/04/05 01:56:04;;;;;;;14.27;3.03;;;10.20;99.90;;;;;;5078504;28;20197;-60
2024/04/05 01:58:32;;;;;;;9.73;3.30;;;10.20;99.90;;;;;;5062179;28;20229;-61
2024/04/05 02:01:01;;;;;;;13.90;4.27;;;10.20;99.90;;;;;;5054037;28;20202;-61
2024/04/05 02:03:28;;;;;;;14.30;3.07;;;10.20;99.90;;;;;;5083093;28;20603;-59
2024/04/05 02:05:54;;;;;;;12.83;3.43;;;10.20;99.90;;;;;;5092174;28;20202;-61
2024/04/05 02:08:20;;;;;;;19.63;3.23;;;10.20;99.90;;;;;;5082882;28;20225;-59
2024/04/05 02:10:47;;;;;;;11.00;2.50;;;10.30;99.90;;;;;;5082544;28;20271;-61
2024/04/05 02:13:13;;;;;;;14.83;3.17;;;10.30;99.90;;;;;;5079111;28;20201;-60
2024/04/05 02:15:45;;;;;;;9.53;3.13;;;10.30;99.90;;;;;;5073035;28;20205;-61
2024/04/05 02:18:12;;;;;;;15.20;3.20;;;10.30;99.90;;;;;;5061387;28;20438;-58
2024/04/05 02:20:40;;;;;;;16.07;3.83;;;10.40;99.90;;;;;;5085192;28;20876;-60
2024/04/05 02:23:07;;;;;;;13.80;3.13;;;10.40;99.90;;;;;;5081870;28;20828;-60
2024/04/05 02:25:33;;;;;;;15.87;3.77;;;10.40;99.90;;;;;;5083467;28;20343;-61
2024/04/05 02:28:00;;;;;;;11.10;2.73;;;10.40;99.90;;;;;;5076650;28;20664;-61
2024/04/05 02:30:25;;;;;;;16.53;3.70;;;10.40;99.90;;;;;;5074538;28;20657;-59
2024/04/05 02:32:54;;;;;;;18.47;3.63;;;10.40;99.90;;;;;;5050006;28;20198;-58
2024/04/05 02:35:19;;;;;;;19.60;3.63;;;10.50;99.90;;;;;;5071946;28;20877;-60
2024/04/05 02:37:46;;;;;;;18.03;3.60;;;10.40;99.90;;;;;;5064405;28;20213;-59
2024/04/05 02:40:12;;;;;;;15.60;3.33;;;10.40;99.90;;;;;;5085195;28;20213;-61
2024/04/05 02:42:39;;;;;;;17.10;3.80;;;10.40;99.90;;;;;;5081903;28;20194;-59
2024/04/05 02:45:05;;;;;;;16.13;4.07;;;10.40;99.90;;;;;;5077587;28;20189;-61
2024/04/05 02:47:32;;;;;;;12.93;3.37;;;10.40;99.90;;;;;;5072129;28;20758;-59
2024/04/05 02:49:59;;;;;;;23.70;4.07;;;10.50;99.90;;;;;;5044760;28;20201;-59
2024/04/05 02:52:26;;;;;;;14.43;3.00;;;10.40;99.90;;;;;;5081089;28;20221;-59
2024/04/05 02:54:52;;;;;;;11.90;4.20;;;10.50;99.90;;;;;;5083901;28;20325;-60
2024/04/05 02:57:19;;;;;;;13.90;3.23;;;10.50;99.90;;;;;;5086280;28;20685;-61
2024/04/05 02:59:45;;;;;;;15.77;3.60;;;10.50;99.90;;;;;;5076982;28;20259;-59
2024/04/05 03:02:12;;;;;;;19.60;3.53;;;10.60;99.90;;;;;;5079403;28;20231;-60
2024/04/05 03:04:37;;;;;;;16.73;3.50;;;10.60;99.90;;;;;;5042852;28;20210;-59
2024/04/05 03:07:06;;;;;;;18.37;4.80;;;10.60;99.90;;;;;;5081310;28;20244;-60
2024/04/05 03:09:32;;;;;;;16.63;4.00;;;10.60;99.90;;;;;;5085065;28;20295;-59
2024/04/05 03:11:59;;;;;;;18.07;3.43;;;10.60;99.90;;;;;;5083100;28;20185;-61
2024/04/05 03:14:25;;;;;;;15.53;3.20;;;10.60;99.90;;;;;;5077264;28;20247;-60
2024/04/05 03:16:52;;;;;;;15.93;3.83;;;10.60;99.90;;;;;;5078374;28;20197;-60
2024/04/05 03:19:17;;;;;;;18.30;4.63;;;10.60;99.90;;;;;;5055255;28;20222;-58
2024/04/05 03:21:44;;;;;;;22.93;3.80;;;10.70;99.90;;;;;;5059443;28;20251;-61
2024/04/05 03:24:12;;;;;;;15.03;3.60;;;10.70;99.90;;;;;;5085344;28;20198;-61
2024/04/05 03:26:39;;;;;;;19.80;3.57;;;10.70;99.90;;;;;;5082426;28;20189;-61
2024/04/05 03:29:05;;;;;;;27.17;4.20;;;10.70;99.90;;;;;;5074069;28;20272;-62
2024/04/05 03:31:33;;;;;;;17.27;4.80;;;10.80;99.90;;;;;;5077253;28;20616;-59
2024/04/05 03:33:59;;;;;;;17.20;4.17;;;10.80;99.90;;;;;;5058512;28;20619;-61
2024/04/05 03:36:25;;;;;;;14.17;3.90;;;10.80;99.90;;;;;;5051399;28;20250;-59
2024/04/05 03:38:52;;;;;;;18.43;4.90;;;10.70;99.90;;;;;;5086037;28;20342;-59
2024/04/05 03:41:19;;;;;;;19.93;4.70;;;10.70;99.90;;;;;;5081835;28;20202;-60
2024/04/05 03:43:46;;;;;;;19.33;4.40;;;10.70;99.90;;;;;;5073517;28;20197;-62
2024/04/05 03:46:12;;;;;;;15.83;3.93;;;10.70;99.90;;;;;;5067039;28;20245;-58
2024/04/05 03:48:40;;;;;;;24.43;4.33;;;10.70;99.90;;;;;;5067665;28;21313;-61
2024/04/05 03:51:06;;;;;;;21.53;4.77;;;10.70;99.90;;;;;;5076778;28;20229;-60
2024/04/05 03:53:33;;;;;;;18.60;4.17;;;10.70;99.90;;;;;;5044291;28;20728;-60
2024/04/05 03:55:59;;;;;;;25.70;4.33;;;10.70;99.90;;;;;;5083989;28;20193;-61
2024/04/05 03:58:27;;;;;;;14.07;3.80;;;10.70;99.90;;;;;;5086174;28;20213;-59
2024/04/05 04:00:53;;;;;;;15.80;3.80;;;10.70;99.90;;;;;;5059230;28;20205;-60
2024/04/05 04:03:20;;;;;;;16.83;4.07;;;10.70;99.90;;;;;;5078088;28;20279;-59
2024/04/05 04:05:46;;;;;;;28.27;4.00;;;10.70;99.90;;;;;;5070435;28;20221;-60
2024/04/05 04:08:13;;;;;;;23.30;4.97;;;10.70;99.90;;;;;;5041828;28;20226;-59
2024/04/05 04:10:39;;;;;;;16.10;3.60;;;10.70;99.90;;;;;;5077958;28;20863;-61
2024/04/05 04:13:06;;;;;;;19.57;4.40;;;10.70;99.90;;;;;;5071470;28;20194;-60
2024/04/05 04:15:34;;;;;;;25.87;4.40;;;10.60;99.90;;;;;;5067392;28;20259;-60
2024/04/05 04:18:01;;;;;;;17.20;5.10;;;10.60;99.90;;;;;;5087029;28;20710;-59
2024/04/05 04:20:27;;;;;;;15.23;3.93;;;10.60;99.90;;;;;;5073392;28;20194;-58
2024/04/05 04:22:53;;;;;;;23.30;4.07;;;10.70;99.90;;;;;;5049748;28;20226;-59
2024/04/05 04:25:21;;;;;;;18.97;3.80;;;10.70;99.90;;;;;;5079212;28;20198;-59
2024/04/05 04:27:48;;;;;;;19.73;3.67;;;10.70;99.90;;;;;;5070586;28;20600;-59
2024/04/05 04:30:15;;;;;;;23.30;4.00;;;10.70;99.90;;;;;;5079915;28;20190;-58
2024/04/05 04:32:42;;;;;;;20.77;3.50;;;10.70;99.90;;;;;;5066493;28;20194;-60
2024/04/05 04:35:09;;;;;;;21.57;3.30;;;10.70;99.90;;;;;;5083514;28;20193;-61
2024/04/05 04:37:35;;;;;;;20.57;3.73;;;10.70;99.90;;;;;;5071968;28;20202;-61
2024/04/05 04:40:02;;;;;;;18.10;3.80;;;10.70;99.90;;;;;;5052840;28;20223;-59
2024/04/05 04:42:28;;;;;;;22.73;3.83;;;10.70;99.90;;;;;;5074077;28;20269;-58
2024/04/05 04:44:56;;;;;;;12.23;3.03;;;10.70;99.90;;;;;;5073649;28;20210;-61
2024/04/05 04:47:24;;;;;;;21.67;3.77;;;10.70;99.90;;;;;;5070454;28;20252;-58
2024/04/05 04:49:53;;;;;;;17.37;4.10;;;10.70;99.90;;;;;;5083811;28;20284;-61
2024/04/05 04:52:18;;;;;;;20.00;3.60;;;10.70;99.90;;;;;;5073418;28;20197;-57
2024/04/05 04:54:45;;;;;;;23.23;3.70;;;10.70;99.90;;;;;;5047783;28;20221;-60
2024/04/05 04:57:11;;;;;;;17.10;4.03;;;10.70;99.90;;;;;;5075043;28;20214;-59
2024/04/05 04:59:38;;;;;;;20.47;4.00;;;10.70;99.90;;;;;;5067414;28;20322;-61
2024/04/05 05:02:04;;;;;;;13.67;3.33;;;10.60;99.90;;;;;;5070854;28;20193;-60
2024/04/05 05:04:31;;;;;;;19.90;3.80;;;10.60;99.90;;;;;;5072310;28;20198;-60
2024/04/05 05:06:58;;;;;;;15.73;3.17;;;10.60;99.90;;;;;;5062033;28;20275;-61
2024/04/05 05:09:25;;;;;;;17.90;3.77;;;10.60;99.90;;;;;;5076846;28;20875;-60
2024/04/05 05:11:51;;;;;;;16.83;3.27;;;10.60;99.90;;;;;;5048865;28;20205;-61
2024/04/05 05:14:18;;;;;;;17.93;3.43;;;10.60;99.90;;;;;;5079974;28;20330;-61
2024/04/05 05:16:44;;;;;;;14.63;3.80;;;10.60;99.90;;;;;;5074048;28;20345;-59
2024/04/05 05:19:10;;;;;;;13.97;3.50;;;10.60;99.90;;;;;;5056631;28;20300;-61
2024/04/05 05:21:38;;;;;;;17.37;4.50;;;10.60;99.90;;;;;;5075360;28;20202;-58
2024/04/05 05:24:06;;;;;;;17.93;3.17;;;10.60;99.90;;;;;;5061281;28;20749;-61
2024/04/05 05:26:32;;;;;;;19.80;3.50;;;10.60;99.90;;;;;;5052256;28;20629;-58
2024/04/05 05:28:59;;;;;;;17.13;3.70;;;10.60;99.90;;;;;;5082235;28;20213;-60
2024/04/05 05:31:25;;;;;;;15.67;3.63;;;10.60;99.90;;;;;;5074999;28;20197;-60
2024/04/05 05:33:52;;;;;;;13.93;2.67;;;10.60;99.90;;;;;;5066796;28;20653;-61
2024/04/05 05:36:18;;;;;;;18.17;3.70;;;10.60;99.90;;;;;;5079997;28;20940;-59
2024/04/05 05:38:45;;;;;;;17.20;3.93;;;10.60;99.90;;;;;;5059738;28;20228;-56
2024/04/05 05:41:12;;;;;;;17.00;4.27;;;10.70;99.90;;;;;;5054267;28;20206;-60
2024/04/05 05:43:39;;;;;;;18.77;3.67;;;10.70;99.90;;;;;;5084424;28;20259;-58
2024/04/05 05:46:05;;;;;;;26.03;4.47;;;10.70;99.90;;;;;;5073627;28;20290;-61
2024/04/05 05:48:32;;;;;;;18.70;3.67;;;10.70;99.90;;;;;;5076765;28;20293;-61
2024/04/05 05:50:58;;;;;;;12.50;3.10;;;10.70;99.90;;;;;;5065813;28;20189;-60
2024/04/05 05:53:26;;;;;;;16.67;3.37;;;10.80;99.90;;;;;;5071252;28;20197;-61
2024/04/05 05:55:52;;;;;;;19.07;3.70;;;10.80;99.90;;;;;;5070631;28;20322;-60
2024/04/05 05:58:20;;;;;;;23.17;3.97;;;10.80;99.90;;;;;;5040160;28;20730;-60
2024/04/05 06:00:46;;;;;;;16.20;3.63;;;10.80;99.90;;;;;;5087326;28;20194;-57
2024/04/05 06:03:13;;;;;;;14.17;4.03;;;10.80;99.90;;;;;;5076665;28;20190;-58
2024/04/05 06:05:38;;;;;;;10.47;3.77;;;10.80;99.90;;;;;;5072269;28;20201;-58
2024/04/05 06:08:07;;;;;;;18.87;3.40;;;10.90;99.90;;;;;;5067889;28;20233;-60
2024/04/05 06:10:33;;;;;;;21.20;4.40;;;10.90;99.90;;;;;;5063298;28;20614;-57
2024/04/05 06:13:01;;;;;;;19.20;4.47;;;10.90;99.90;;;;;;5048659;28;20207;-61
2024/04/05 06:15:28;;;;;;;15.30;3.67;;;10.90;99.90;;;;;;5076892;28;20190;-57
2024/04/05 06:17:55;;;;;;;15.67;3.90;;;10.90;99.90;;;;;;5075705;28;20956;-59
2024/04/05 06:20:21;;;;;;;16.70;3.40;;;10.90;99.90;;;;;;5059809;28;20198;-59
2024/04/05 06:22:48;;;;;;;12.70;3.33;;;11.00;99.90;;;;;;5082615;28;20905;-60
2024/04/05 06:25:14;;;;;;;17.60;3.73;;;11.00;99.90;;;;;;5074277;28;20208;-60
2024/04/05 06:27:41;;;;;;;18.67;4.10;;;11.00;99.90;;;;;;5056446;28;22626;-60
2024/04/05 06:30:10;;;;;;;12.63;3.00;;;11.10;99.90;;;;;;5057230;28;20231;-60
2024/04/05 06:32:39;;;;;;;16.87;3.73;;;11.10;99.90;;;;;;5063764;28;20243;-56
2024/04/05 06:35:05;;;;;;;18.07;3.43;;;11.20;99.90;;;;;;5062778;28;20190;-60
2024/04/05 06:37:33;;;;;;;13.67;3.87;;;11.20;99.90;;;;;;5063675;28;20297;-57
2024/04/05 06:39:59;;;;;;;22.53;4.13;;;11.30;99.90;;;;;;5073372;28;20202;-59
2024/04/05 06:42:27;;;;;;;20.27;4.47;;;11.30;99.90;;;;;;5072021;28;20194;-57
2024/04/05 06:44:53;;;;;;;17.63;3.60;;;11.40;99.90;;;;;;5049889;28;20303;-58
2024/04/05 06:47:21;;;;;;;16.03;3.70;;;11.40;99.90;;;;;;5076077;28;20254;-54
2024/04/05 06:49:49;;;;;;;10.70;3.40;;;11.40;99.90;;;;;;5072543;28;20232;-59
2024/04/05 06:52:16;;;;;;;15.63;4.13;;;11.40;99.90;;;;;;5067541;28;20198;-54
2024/04/05 06:54:44;;;;;;;17.03;4.17;;;11.40;99.90;;;;;;5064902;28;20275;-52
2024/04/05 06:57:11;;;;;;;15.63;3.80;;;11.40;99.90;;;;;;5083475;28;20218;-56
2024/04/05 06:59:38;;;;;;;13.90;3.10;;;11.40;99.90;;;;;;5033888;28;20289;-58
2024/04/05 07:02:06;;;;;;;16.40;3.23;;;11.50;99.90;;;;;;5079032;28;20191;-56
2024/04/05 07:04:32;;;;;;;14.83;3.50;;;11.50;99.90;;;;;;5077036;28;20186;-56
2024/04/05 07:07:01;;;;;;;17.37;3.63;;;11.50;99.90;;;;;;5065214;28;20281;-60
2024/04/05 07:09:29;;;;;;;19.27;3.20;;;11.50;99.90;;;;;;5073353;28;20245;-58
2024/04/05 07:11:58;;;;;;;18.90;3.50;;;11.60;99.90;;;;;;5077422;28;20188;-57
2024/04/05 07:14:24;;;;;;;15.10;3.60;;;11.60;99.90;;;;;;5048726;28;20201;-59
2024/04/05 07:16:52;;;;;;;23.37;3.60;;;11.70;99.90;;;;;;5063905;28;20964;-59
2024/04/05 07:19:18;;;;;;;8.43;3.33;;;11.70;99.90;;;;;;5087273;28;20540;-58
2024/04/05 07:21:47;;;;;;;13.20;3.33;;;11.80;99.90;;;;;;5067053;28;20194;-60
2024/04/05 07:24:15;;;;;;;16.57;3.43;;;11.70;99.90;;;;;;5051050;28;20289;-58
2024/04/05 07:26:43;;;;;;;15.40;3.43;;;11.70;99.90;;;;;;5066484;28;20206;-58
2024/04/05 07:29:10;;;;;;;13.20;3.60;;;11.70;99.90;;;;;;5067270;28;20218;-59
2024/04/05 07:31:38;;;;;;;13.03;3.67;;;11.70;99.90;;;;;;5048253;28;20201;-58
2024/04/05 07:34:04;;;;;;;15.30;3.40;;;11.70;99.90;;;;;;5085516;28;20817;-60
2024/04/05 07:36:32;;;;;;;20.80;3.80;;;11.70;99.90;;;;;;5074076;28;20737;-58
2024/04/05 07:38:59;;;;;;;15.30;3.53;;;11.80;99.90;;;;;;5075400;28;20586;-60
2024/04/05 07:41:27;;;;;;;11.60;2.73;;;11.70;99.90;;;;;;5058785;28;20205;-58
2024/04/05 07:43:54;;;;;;;13.03;4.33;;;11.70;99.90;;;;;;5073780;28;20264;-60
2024/04/05 07:46:21;;;;;;;16.03;3.57;;;11.70;99.90;;;;;;5066503;28;20190;-58
2024/04/05 07:48:48;;;;;;;15.90;3.30;;;11.80;99.90;;;;;;5039350;28;20229;-59
2024/04/05 07:51:16;;;;;;;13.10;3.70;;;11.80;99.90;;;;;;5078643;28;20267;-61
2024/04/05 07:53:44;;;;;;;15.90;4.23;;;11.80;99.90;;;;;;5073432;28;20193;-59
2024/04/05 07:56:12;;;;;;;16.00;3.60;;;11.80;99.90;;;;;;5057235;28;20212;-59
2024/04/05 07:58:39;;;;;;;8.97;3.10;;;11.90;99.90;;;;;;5067929;28;20214;-61
2024/04/05 08:01:07;;;;;;;14.60;2.87;;;11.80;99.90;;;;;;5080660;28;20191;-56
2024/04/05 08:03:33;;;;;;;13.90;3.70;;;11.90;99.90;;;;;;5055288;28;20217;-64
2024/04/05 08:06:02;;;;;;;14.47;3.83;;;11.90;99.90;;;;;;5087768;28;20571;-58
2024/04/05 08:08:29;;;;;;;14.20;3.43;;;11.90;99.90;;;;;;5072541;28;20206;-63
2024/04/05 08:11:03;;;;;;;14.67;3.90;;;11.90;99.90;;;;;;5069199;28;20269;-59
2024/04/05 08:13:29;;;;;;;15.27;4.17;;;11.90;99.90;;;;;;5075198;28;20221;-59
2024/04/05 08:15:58;;;;;;;12.80;3.67;;;11.90;99.90;;;;;;5073951;28;20207;-58
2024/04/05 08:18:24;;;;;;;15.97;4.03;;;12.00;99.90;;;;;;5058353;28;20268;-61
2024/04/05 08:20:51;;;;;;;15.37;3.73;;;12.00;99.90;;;;;;5091154;28;20186;-58
2024/04/05 08:23:17;;;;;;;15.23;3.70;;;12.00;99.90;;;;;;5074965;28;20201;-62
2024/04/05 08:25:45;;;;;;;8.00;3.10;;;12.10;99.90;;;;;;5070086;28;20190;-58
2024/04/05 08:28:12;;;;;;;16.60;3.70;;;12.10;99.90;;;;;;5088691;28;20240;-65
2024/04/05 08:30:39;;;;;;;13.77;4.07;;;12.10;99.90;;;;;;5073359;28;20704;-62
2024/04/05 08:33:09;;;;;;;17.30;4.87;;;12.20;99.90;;;;;;5047125;28;20814;-60
2024/04/05 08:35:36;;;;;;;18.63;4.87;;;12.20;99.90;;;;;;5085838;28;20570;-61
2024/04/05 08:38:03;;;;;;;19.33;4.87;;;12.20;99.90;;;;;;5073890;28;20218;-61
2024/04/05 08:40:30;;;;;;;17.60;4.60;;;12.40;99.90;;;;;;5079137;28;20194;-63
2024/04/05 08:43:00;;;;;;;25.83;5.57;;;12.50;99.90;;;;;;5081846;28;20224;-58
2024/04/05 08:45:30;;;;;;;11.77;4.27;;;12.60;99.90;;;;;;5078614;28;20201;-59
2024/04/05 08:48:00;;;;;;;16.67;4.73;;;12.70;99.90;;;;;;5083920;28;20227;-57
2024/04/05 08:50:30;;;;;;;15.30;4.67;;;12.80;99.90;;;;;;5038381;28;20221;-60
2024/04/05 08:52:56;;;;;;;14.17;4.17;;;13.00;99.90;;;;;;5071583;28;20198;-59
2024/04/05 08:55:24;;;;;;;19.83;4.63;;;13.20;99.90;;;;;;5088056;28;20651;-58
2024/04/05 08:57:51;;;;;;;20.90;4.23;;;13.30;99.90;;;;;;5075907;28;20909;-56
2024/04/05 09:00:23;;;;;;;18.20;4.63;;;13.40;99.90;;;;;;5079193;28;20663;-56
2024/04/05 09:02:52;;;;;;;13.83;4.07;;;13.60;99.90;;;;;;5077090;28;20198;-53
2024/04/05 09:05:20;;;;;;;18.07;3.83;;;13.70;99.90;;;;;;5047083;28;20205;-59
2024/04/05 09:07:49;;;;;;;10.30;4.50;;;13.90;99.90;;;;;;5078981;28;20327;-60
2024/04/05 09:10:17;;;;;;;10.87;2.93;;;14.00;99.90;;;;;;5075604;28;20749;-53
2024/04/05 09:12:48;;;;;;;13.67;4.17;;;14.10;99.90;;;;;;5076950;28;20913;-51
2024/04/05 09:15:19;;;;;;;20.10;4.73;;;14.20;99.90;;;;;;5078743;28;20278;-53
2024/04/05 09:17:46;;;;;;;13.13;3.37;;;14.30;99.90;;;;;;5071861;28;20388;-55
2024/04/05 09:20:19;;;;;;;10.50;3.83;;;14.30;99.90;;;;;;5049818;28;20217;-53
2024/04/05 09:22:48;;;;;;;18.07;3.40;;;14.50;99.90;;;;;;5082154;28;20281;-53
2024/04/05 09:25:17;;;;;;;10.80;3.43;;;14.50;99.90;;;;;;5079521;28;20581;-56
2024/04/05 09:27:43;;;;;;;11.63;3.13;;;14.60;99.90;;;;;;5076080;28;20221;-50
2024/04/05 09:30:11;;;;;;;11.20;3.03;;;14.60;99.90;;;;;;5076892;28;20233;-54
2024/04/05 09:32:37;;;;;;;13.87;3.87;;;14.60;99.90;;;;;;5066974;28;20190;-59
2024/04/05 09:35:11;;;;;;;14.97;3.70;;;14.70;99.90;;;;;;5048918;28;20281;-54
2024/04/05 09:37:38;;;;;;;12.63;3.27;;;14.70;99.90;;;;;;5081889;28;20679;-59
2024/04/05 09:40:10;;;;;;;11.43;3.30;;;14.70;99.90;;;;;;5077980;28;20186;-56
2024/04/05 09:42:38;;;;;;;14.20;3.00;;;14.80;99.90;;;;;;5081874;28;20213;-59
2024/04/05 09:45:07;;;;;;;8.13;2.70;;;14.80;99.90;;;;;;5088218;28;20189;-58
2024/04/05 09:47:33;;;;;;;10.23;2.93;;;14.90;99.90;;;;;;5063397;28;20210;-60
2024/04/05 09:50:00;;;;;;;11.80;3.13;;;14.90;99.90;;;;;;5074672;28;20681;-58
2024/04/05 09:52:37;;;;;;;8.87;2.83;;;15.00;99.90;;;;;;5054340;28;20706;-60
2024/04/05 09:55:09;;;;;;;13.03;3.47;;;15.00;99.90;;;;;;5079291;28;20292;-56
2024/04/05 09:57:36;;;;;;;12.57;3.30;;;15.00;99.90;;;;;;5079222;28;20582;-58
2024/04/05 10:00:14;;;;;;;11.70;3.30;;;15.00;99.90;;;;;;5069282;28;20730;-58
2024/04/05 10:02:45;;;;;;;11.50;3.77;;;15.00;99.90;;;;;;5068790;28;20205;-53
2024/04/05 10:05:24;;;;;;;11.27;2.83;;;15.10;99.90;;;;;;5057932;28;20206;-56
2024/04/05 10:07:51;;;;;;;8.93;2.83;;;15.20;99.90;;;;;;5051747;28;20217;-59
2024/04/05 10:10:29;;;;;;;8.87;3.00;;;15.30;99.90;;;;;;5060953;28;20229;-56
2024/04/05 10:12:56;;;;;;;7.10;2.83;;;15.50;99.90;;;;;;5075120;28;20198;-60
2024/04/05 10:15:27;;;;;;;8.57;3.00;;;15.60;99.90;;;;;;5065431;28;20209;-59
2024/04/05 10:17:57;;;;;;;8.37;2.47;;;15.60;99.90;;;;;;5070563;28;20415;-57
2024/04/05 10:20:24;;;;;;;8.47;2.60;;;15.60;99.90;;;;;;5054908;28;21309;-58
2024/04/05 10:22:59;;;;;;;7.53;2.37;;;15.60;99.90;;;;;;5052046;28;20224;-57
2024/04/05 10:25:28;;;;;;;8.53;2.77;;;15.70;99.90;;;;;;5084094;28;20278;-55
2024/04/05 10:27:55;;;;;;;8.97;2.43;;;15.80;99.90;;;;;;5062498;28;20218;-58
2024/04/05 10:30:24;;;;;;;10.10;2.67;;;15.80;99.90;;;;;;5067996;28;20221;-56
2024/04/05 10:32:56;;;;;;;8.03;2.20;;;15.80;99.90;;;;;;5078149;28;20248;-59
2024/04/05 10:35:24;;;;;;;6.73;2.50;;;15.90;99.90;;;;;;5068184;28;21152;-54
2024/04/05 10:38:00;;;;;;;6.17;2.23;;;15.90;99.90;;;;;;5051315;28;20732;-58
2024/04/05 10:40:29;;;;;;;13.13;2.70;;;16.00;99.90;;;;;;5086043;28;20210;-58
2024/04/05 10:42:55;;;;;;;9.37;1.93;;;16.00;99.90;;;;;;5059981;28;20217;-59
2024/04/05 10:45:24;;;;;;;7.83;2.40;;;16.00;99.90;;;;;;5071884;28;20190;-59
2024/04/05 10:47:52;;;;;;;6.80;2.53;;;16.00;99.90;;;;;;5081788;28;20211;-59
2024/04/05 10:50:20;;;;;;;6.93;1.90;;;16.00;99.90;;;;;;5071757;28;20967;-54
2024/04/05 10:52:49;;;;;;;6.37;2.30;;;16.00;99.90;;;;;;5069692;28;20229;-61
2024/04/05 10:55:16;;;;;;;5.77;2.07;;;15.90;99.90;;;;;;5055297;28;20204;-55
2024/04/05 10:57:44;;;;;;;6.03;2.07;;;15.90;99.90;;;;;;5040160;28;20224;-55
2024/04/05 11:00:12;;;;;;;9.33;2.73;;;15.90;99.90;;;;;;5072260;28;20221;-58
2024/04/05 11:02:42;;;;;;;9.57;2.23;;;16.00;99.90;;;;;;5081668;28;20213;-57
2024/04/05 11:05:13;;;;;;;4.63;2.17;;;16.00;99.90;;;;;;5075913;28;20675;-52
2024/04/05 11:07:41;;;;;;;4.10;2.07;;;16.00;99.90;;;;;;5068329;28;20696;-60
2024/04/05 11:10:17;;;;;;;9.20;2.40;;;16.00;99.90;;;;;;5032004;28;20210;-58
2024/04/05 11:12:46;;;;;;;5.67;1.67;;;15.90;99.90;;;;;;5069010;28;20424;-58
2024/04/05 11:15:13;;;;;;;7.40;2.37;;;15.90;99.90;;;;;;5068677;28;20206;-56
2024/04/05 11:17:40;;;;;;;7.87;1.77;;;15.90;99.90;;;;;;5077374;28;20312;-51
2024/04/05 11:20:09;;;;;;;8.43;2.30;;;15.90;99.90;;;;;;5084659;28;20178;-55
2024/04/05 11:22:36;;;;;;;8.63;2.07;;;15.90;99.90;;;;;;5070686;28;20997;-59
2024/04/05 11:25:04;;;;;;;5.17;2.03;;;15.90;99.90;;;;;;5041200;28;20856;-57
2024/04/05 11:27:31;;;;;;;4.33;1.80;;;15.90;99.90;;;;;;5072372;28;20222;-56
2024/04/05 11:30:03;;;;;;;5.33;1.90;;;15.90;99.90;;;;;;5061910;28;20202;-52
2024/04/05 11:32:31;;;;;;;7.67;2.53;;;15.90;99.90;;;;;;5064129;28;20202;-59
2024/04/05 11:35:00;;;;;;;5.77;2.10;;;15.90;99.90;;;;;;5063803;28;20807;-59
2024/04/05 11:37:28;;;;;;;6.10;2.10;;;15.90;99.90;;;;;;5079859;28;20213;-56
2024/04/05 11:39:55;;;;;;;6.03;2.17;;;15.90;99.90;;;;;;5031190;28;20240;-60
2024/04/05 11:42:21;;;;;;;4.70;1.87;;;15.90;99.90;;;;;;5081795;28;20189;-60
2024/04/05 11:44:48;;;;;;;9.53;2.43;;;15.90;99.90;;;;;;5073753;28;20206;-59
2024/04/05 11:47:16;;;;;;;4.70;1.83;;;15.90;99.90;;;;;;5065220;28;20220;-56
2024/04/05 11:49:42;;;;;;;8.83;2.57;;;15.90;99.90;;;;;;5084803;28;20591;-59
2024/04/05 11:52:09;;;;;;;7.07;2.37;;;15.90;99.90;;;;;;5075714;28;20194;-57
2024/04/05 11:54:35;;;;;;;8.37;2.30;;;15.90;99.90;;;;;;5064186;28;21005;-60
2024/04/05 11:57:01;;;;;;;5.77;1.83;;;15.80;99.90;;;;;;5048903;28;20293;-57
2024/04/05 11:59:28;;;;;;;4.70;2.40;;;15.80;99.90;;;;;;5076545;28;21728;-59
2024/04/05 12:01:54;;;;;;;5.43;2.70;;;15.90;99.90;;;;;;5066355;28;20213;-59
2024/04/05 12:04:23;;;;;;;9.60;2.37;;;15.80;99.90;;;;;;5064329;28;20189;-59
2024/04/05 12:06:50;;;;;;;5.33;2.33;;;15.70;99.90;;;;;;5081509;28;20221;-58
2024/04/05 12:09:17;;;;;;;8.27;2.50;;;15.60;99.90;;;;;;5054379;28;20226;-58
2024/04/05 12:11:43;;;;;;;8.37;2.63;;;15.60;99.90;;;;;;5049114;28;20221;-60
2024/04/05 12:14:09;;;;;;;6.83;2.33;;;15.50;99.90;;;;;;5079248;28;20191;-58
2024/04/05 12:16:35;;;;;;;9.77;2.80;;;15.40;99.90;;;;;;5061599;28;20209;-59
2024/04/05 12:19:03;;;;;;;6.23;2.70;;;15.40;99.90;;;;;;5038036;28;20202;-57
2024/04/05 12:21:30;;;;;;;6.03;2.50;;;15.30;99.90;;;;;;5058138;28;20209;-57
2024/04/05 12:23:57;;;;;;;8.67;2.27;;;15.20;99.90;;;;;;5069095;28;20202;-58
2024/04/05 12:26:23;;;;;;;8.13;2.80;;;15.20;99.90;;;;;;5083924;28;20552;-57
2024/04/05 12:28:50;;;;;;;7.83;3.17;;;15.10;99.90;;;;;;5040140;28;20275;-60
2024/04/05 12:31:16;;;;;;;9.20;2.37;;;15.10;99.90;;;;;;5079495;28;20284;-57
2024/04/05 12:33:43;;;;;;;7.40;2.83;;;15.00;99.90;;;;;;5040577;28;20866;-56
2024/04/05 12:36:10;;;;;;;7.13;2.80;;;15.00;99.90;;;;;;5060198;28;20209;-59
2024/04/05 12:38:39;;;;;;;3.83;2.40;;;15.00;99.90;;;;;;5077695;28;20285;-57
2024/04/05 12:41:06;;;;;;;5.50;2.73;;;14.90;99.90;;;;;;5072445;28;20734;-59